sensor_id;sensor_type;location;lat;lon;timestamp;pressure;altitude;pressure_sealevel;temperature;humidity
49122;BME280;35529;44.342;25.944;2023-11-21T00:01:12;100373.22;;;7.20;100.00
49122;BME280;35529;44.342;25.944;2023-11-21T00:03:41;100369.16;;;7.09;100.00
49122;BME280;35529;44.342;25.944;2023-11-21T00:06:07;100368.38;;;7.00;100.00
49122;BME280;35529;44.342;25.944;2023-11-21T00:08:34;100370.75;;;6.95;100.00
49122;BME280;35529;44.342;25.944;2023-11-21T00:11:00;100379.19;;;6.91;100.00
49122;BME280;35529;44.342;25.944;2023-11-21T00:13:27;100376.06;;;6.87;100.00
49122;BME280;35529;44.342;25.944;2023-11-21T00:15:53;100370.50;;;6.82;100.00
49122;BME280;35529;44.342;25.944;2023-11-21T00:18:19;100372.00;;;6.76;100.00
49122;BME280;35529;44.342;25.944;2023-11-21T00:20:45;100379.47;;;6.73;100.00
49122;BME280;35529;44.342;25.944;2023-11-21T00:23:11;100369.91;;;6.71;100.00
49122;BME280;35529;44.342;25.944;2023-11-21T00:25:37;100376.47;;;6.76;100.00
49122;BME280;35529;44.342;25.944;2023-11-21T00:28:03;100373.53;;;6.70;100.00
49122;BME280;35529;44.342;25.944;2023-11-21T00:30:30;100374.88;;;6.66;100.00
49122;BME280;35529;44.342;25.944;2023-11-21T00:32:56;100361.84;;;6.65;100.00
49122;BME280;35529;44.342;25.944;2023-11-21T00:35:22;100377.19;;;6.61;100.00
49122;BME280;35529;44.342;25.944;2023-11-21T00:37:49;100367.63;;;6.60;100.00
49122;BME280;35529;44.342;25.944;2023-11-21T00:40:16;100361.91;;;6.57;100.00
49122;BME280;35529;44.342;25.944;2023-11-21T00:42:45;100369.47;;;6.60;100.00
49122;BME280;35529;44.342;25.944;2023-11-21T00:45:12;100357.94;;;6.61;100.00
49122;BME280;35529;44.342;25.944;2023-11-21T00:47:38;100361.00;;;6.64;100.00
49122;BME280;35529;44.342;25.944;2023-11-21T00:50:04;100357.56;;;6.64;100.00
49122;BME280;35529;44.342;25.944;2023-11-21T00:52:32;100364.50;;;6.65;100.00
49122;BME280;35529;44.342;25.944;2023-11-21T00:54:58;100366.16;;;6.66;100.00
49122;BME280;35529;44.342;25.944;2023-11-21T00:57:28;100364.97;;;6.68;100.00
49122;BME280;35529;44.342;25.944;2023-11-21T00:59:55;100362.63;;;6.74;100.00
49122;BME280;35529;44.342;25.944;2023-11-21T01:02:21;100362.91;;;6.79;100.00
49122;BME280;35529;44.342;25.944;2023-11-21T01:04:47;100368.16;;;6.87;100.00
49122;BME280;35529;44.342;25.944;2023-11-21T01:07:13;100370.75;;;6.95;100.00
49122;BME280;35529;44.342;25.944;2023-11-21T01:09:39;100367.94;;;6.97;100.00
49122;BME280;35529;44.342;25.944;2023-11-21T01:12:06;100365.13;;;6.98;100.00
49122;BME280;35529;44.342;25.944;2023-11-21T01:14:32;100364.75;;;7.01;100.00
49122;BME280;35529;44.342;25.944;2023-11-21T01:16:58;100363.28;;;6.99;100.00
49122;BME280;35529;44.342;25.944;2023-11-21T01:19:24;100354.56;;;6.98;100.00
49122;BME280;35529;44.342;25.944;2023-11-21T01:21:50;100348.44;;;6.98;100.00
49122;BME280;35529;44.342;25.944;2023-11-21T01:24:18;100348.56;;;7.04;100.00
49122;BME280;35529;44.342;25.944;2023-11-21T01:26:44;100349.41;;;7.05;100.00
49122;BME280;35529;44.342;25.944;2023-11-21T01:29:12;100349.22;;;7.07;100.00
49122;BME280;35529;44.342;25.944;2023-11-21T01:31:38;100343.94;;;7.07;100.00
49122;BME280;35529;44.342;25.944;2023-11-21T01:34:04;100341.28;;;7.07;100.00
49122;BME280;35529;44.342;25.944;2023-11-21T01:36:31;100331.09;;;7.03;100.00
49122;BME280;35529;44.342;25.944;2023-11-21T01:39:00;100331.28;;;7.02;100.00
49122;BME280;35529;44.342;25.944;2023-11-21T01:41:26;100332.38;;;7.08;100.00
49122;BME280;35529;44.342;25.944;2023-11-21T01:43:53;100333.66;;;7.12;100.00
49122;BME280;35529;44.342;25.944;2023-11-21T01:46:19;100322.94;;;7.13;100.00
49122;BME280;35529;44.342;25.944;2023-11-21T01:48:47;100333.47;;;7.13;100.00
49122;BME280;35529;44.342;25.944;2023-11-21T01:51:14;100329.09;;;7.05;100.00
49122;BME280;35529;44.342;25.944;2023-11-21T01:53:40;100327.16;;;6.99;100.00
49122;BME280;35529;44.342;25.944;2023-11-21T01:56:07;100324.16;;;7.02;100.00
49122;BME280;35529;44.342;25.944;2023-11-21T01:58:34;100341.00;;;7.01;100.00
49122;BME280;35529;44.342;25.944;2023-11-21T02:01:00;100343.00;;;6.99;100.00
49122;BME280;35529;44.342;25.944;2023-11-21T02:03:26;100342.53;;;6.96;100.00
49122;BME280;35529;44.342;25.944;2023-11-21T02:05:53;100342.22;;;6.91;100.00
49122;BME280;35529;44.342;25.944;2023-11-21T02:08:19;100347.38;;;6.84;100.00
49122;BME280;35529;44.342;25.944;2023-11-21T02:10:45;100342.09;;;6.84;100.00
49122;BME280;35529;44.342;25.944;2023-11-21T02:13:11;100353.72;;;6.75;100.00
49122;BME280;35529;44.342;25.944;2023-11-21T02:15:37;100359.34;;;6.71;100.00
49122;BME280;35529;44.342;25.944;2023-11-21T02:18:04;100364.97;;;6.68;100.00
49122;BME280;35529;44.342;25.944;2023-11-21T02:20:32;100364.84;;;6.62;100.00
49122;BME280;35529;44.342;25.944;2023-11-21T02:23:00;100362.72;;;6.57;100.00
49122;BME280;35529;44.342;25.944;2023-11-21T02:25:28;100352.84;;;6.51;100.00
49122;BME280;35529;44.342;25.944;2023-11-21T02:27:54;100351.41;;;6.48;100.00
49122;BME280;35529;44.342;25.944;2023-11-21T02:30:21;100354.34;;;6.45;100.00
49122;BME280;35529;44.342;25.944;2023-11-21T02:32:48;100349.09;;;6.45;100.00
49122;BME280;35529;44.342;25.944;2023-11-21T02:35:14;100353.06;;;6.41;100.00
49122;BME280;35529;44.342;25.944;2023-11-21T02:37:41;100354.88;;;6.41;100.00
49122;BME280;35529;44.342;25.944;2023-11-21T02:40:09;100351.94;;;6.35;100.00
49122;BME280;35529;44.342;25.944;2023-11-21T02:42:35;100347.66;;;6.34;100.00
49122;BME280;35529;44.342;25.944;2023-11-21T02:45:02;100344.38;;;6.32;100.00
49122;BME280;35529;44.342;25.944;2023-11-21T02:47:28;100339.91;;;6.33;100.00
49122;BME280;35529;44.342;25.944;2023-11-21T02:49:54;100338.09;;;6.33;100.00
49122;BME280;35529;44.342;25.944;2023-11-21T02:52:20;100344.03;;;6.35;100.00
49122;BME280;35529;44.342;25.944;2023-11-21T02:54:47;100352.75;;;6.36;100.00
49122;BME280;35529;44.342;25.944;2023-11-21T02:57:14;100360.50;;;6.37;100.00
49122;BME280;35529;44.342;25.944;2023-11-21T02:59:40;100344.84;;;6.36;100.00
49122;BME280;35529;44.342;25.944;2023-11-21T03:02:06;100351.13;;;6.35;100.00
49122;BME280;35529;44.342;25.944;2023-11-21T03:04:34;100330.53;;;6.30;100.00
49122;BME280;35529;44.342;25.944;2023-11-21T03:07:00;100336.16;;;6.27;100.00
49122;BME280;35529;44.342;25.944;2023-11-21T03:09:29;100338.97;;;6.26;100.00
49122;BME280;35529;44.342;25.944;2023-11-21T03:11:55;100341.75;;;6.24;100.00
49122;BME280;35529;44.342;25.944;2023-11-21T03:14:21;100345.72;;;6.20;100.00
49122;BME280;35529;44.342;25.944;2023-11-21T03:16:50;100347.78;;;6.10;100.00
49122;BME280;35529;44.342;25.944;2023-11-21T03:19:16;100350.09;;;6.04;100.00
49122;BME280;35529;44.342;25.944;2023-11-21T03:21:43;100357.50;;;6.01;100.00
49122;BME280;35529;44.342;25.944;2023-11-21T03:24:09;100352.41;;;5.91;100.00
49122;BME280;35529;44.342;25.944;2023-11-21T03:26:35;100352.41;;;5.91;100.00
49122;BME280;35529;44.342;25.944;2023-11-21T03:29:04;100356.38;;;5.87;100.00
49122;BME280;35529;44.342;25.944;2023-11-21T03:31:30;100351.09;;;5.87;100.00
49122;BME280;35529;44.342;25.944;2023-11-21T03:33:57;100355.38;;;5.88;100.00
49122;BME280;35529;44.342;25.944;2023-11-21T03:36:23;100354.38;;;5.89;100.00
49122;BME280;35529;44.342;25.944;2023-11-21T03:38:51;100357.34;;;5.86;100.00
49122;BME280;35529;44.342;25.944;2023-11-21T03:41:17;100346.31;;;5.82;100.00
49122;BME280;35529;44.342;25.944;2023-11-21T03:43:43;100351.41;;;5.84;100.00
49122;BME280;35529;44.342;25.944;2023-11-21T03:46:09;100352.09;;;5.86;100.00
49122;BME280;35529;44.342;25.944;2023-11-21T03:48:35;100348.25;;;5.97;100.00
49122;BME280;35529;44.342;25.944;2023-11-21T03:51:01;100349.41;;;6.02;100.00
49122;BME280;35529;44.342;25.944;2023-11-21T03:53:28;100364.91;;;6.06;100.00
49122;BME280;35529;44.342;25.944;2023-11-21T03:55:54;100364.25;;;6.03;100.00
49122;BME280;35529;44.342;25.944;2023-11-21T03:58:20;100358.47;;;6.00;100.00
49122;BME280;35529;44.342;25.944;2023-11-21T04:00:46;100369.88;;;5.92;100.00
49122;BME280;35529;44.342;25.944;2023-11-21T04:03:14;100369.19;;;5.90;100.00
49122;BME280;35529;44.342;25.944;2023-11-21T04:05:41;100368.06;;;5.84;100.00
49122;BME280;35529;44.342;25.944;2023-11-21T04:08:07;100374.66;;;5.80;100.00
49122;BME280;35529;44.342;25.944;2023-11-21T04:10:33;100366.44;;;5.75;100.00
49122;BME280;35529;44.342;25.944;2023-11-21T04:12:59;100371.19;;;5.71;100.00
49122;BME280;35529;44.342;25.944;2023-11-21T04:15:26;100378.28;;;5.71;100.00
49122;BME280;35529;44.342;25.944;2023-11-21T04:17:52;100368.41;;;5.65;100.00
49122;BME280;35529;44.342;25.944;2023-11-21T04:20:18;100371.03;;;5.65;100.00
49122;BME280;35529;44.342;25.944;2023-11-21T04:22:44;100376.16;;;5.58;100.00
49122;BME280;35529;44.342;25.944;2023-11-21T04:25:11;100376.31;;;5.57;100.00
49122;BME280;35529;44.342;25.944;2023-11-21T04:27:40;100367.28;;;5.51;100.00
49122;BME280;35529;44.342;25.944;2023-11-21T04:30:09;100376.16;;;5.50;100.00
49122;BME280;35529;44.342;25.944;2023-11-21T04:32:36;100368.63;;;5.39;100.00
49122;BME280;35529;44.342;25.944;2023-11-21T04:35:02;100372.41;;;5.28;100.00
49122;BME280;35529;44.342;25.944;2023-11-21T04:37:29;100376.03;;;5.27;100.00
49122;BME280;35529;44.342;25.944;2023-11-21T04:39:55;100376.50;;;5.22;100.00
49122;BME280;35529;44.342;25.944;2023-11-21T04:42:21;100375.84;;;5.28;100.00
49122;BME280;35529;44.342;25.944;2023-11-21T04:44:48;100382.09;;;5.27;100.00
49122;BME280;35529;44.342;25.944;2023-11-21T04:47:14;100386.84;;;5.24;100.00
49122;BME280;35529;44.342;25.944;2023-11-21T04:49:42;100387.84;;;5.14;100.00
49122;BME280;35529;44.342;25.944;2023-11-21T04:52:08;100388.00;;;5.04;100.00
49122;BME280;35529;44.342;25.944;2023-11-21T04:54:35;100392.91;;;4.99;100.00
49122;BME280;35529;44.342;25.944;2023-11-21T04:57:01;100390.63;;;4.96;100.00
49122;BME280;35529;44.342;25.944;2023-11-21T04:59:27;100390.09;;;4.93;100.00
49122;BME280;35529;44.342;25.944;2023-11-21T05:01:54;100394.22;;;4.95;100.00
49122;BME280;35529;44.342;25.944;2023-11-21T05:04:20;100402.13;;;4.95;100.00
49122;BME280;35529;44.342;25.944;2023-11-21T05:06:48;100401.78;;;4.90;100.00
49122;BME280;35529;44.342;25.944;2023-11-21T05:09:14;100402.28;;;4.85;100.00
49122;BME280;35529;44.342;25.944;2023-11-21T05:11:41;100409.34;;;4.85;100.00
49122;BME280;35529;44.342;25.944;2023-11-21T05:14:07;100408.19;;;4.87;100.00
49122;BME280;35529;44.342;25.944;2023-11-21T05:16:34;100399.50;;;4.95;100.00
49122;BME280;35529;44.342;25.944;2023-11-21T05:19:01;100415.16;;;5.05;100.00
49122;BME280;35529;44.342;25.944;2023-11-21T05:21:27;100405.44;;;5.14;100.00
49122;BME280;35529;44.342;25.944;2023-11-21T05:23:55;100400.53;;;5.19;100.00
49122;BME280;35529;44.342;25.944;2023-11-21T05:26:21;100403.50;;;5.24;100.00
49122;BME280;35529;44.342;25.944;2023-11-21T05:28:47;100400.00;;;5.24;100.00
49122;BME280;35529;44.342;25.944;2023-11-21T05:31:13;100396.91;;;5.28;100.00
49122;BME280;35529;44.342;25.944;2023-11-21T05:33:40;100398.72;;;5.36;100.00
49122;BME280;35529;44.342;25.944;2023-11-21T05:36:06;100394.94;;;5.39;100.00
49122;BME280;35529;44.342;25.944;2023-11-21T05:38:34;100410.75;;;5.47;100.00
49122;BME280;35529;44.342;25.944;2023-11-21T05:41:01;100404.16;;;5.59;100.00
49122;BME280;35529;44.342;25.944;2023-11-21T05:43:36;100406.28;;;5.72;100.00
49122;BME280;35529;44.342;25.944;2023-11-21T05:46:06;100407.25;;;5.79;100.00
49122;BME280;35529;44.342;25.944;2023-11-21T05:48:33;100400.31;;;5.86;100.00
49122;BME280;35529;44.342;25.944;2023-11-21T05:50:59;100409.41;;;6.00;100.00
49122;BME280;35529;44.342;25.944;2023-11-21T05:53:25;100400.28;;;6.19;100.00
49122;BME280;35529;44.342;25.944;2023-11-21T05:55:51;100398.88;;;6.40;100.00
49122;BME280;35529;44.342;25.944;2023-11-21T05:58:17;100398.00;;;6.56;100.00
49122;BME280;35529;44.342;25.944;2023-11-21T06:00:43;100401.56;;;6.71;100.00
49122;BME280;35529;44.342;25.944;2023-11-21T06:03:09;100398.88;;;6.80;100.00
49122;BME280;35529;44.342;25.944;2023-11-21T06:05:35;100394.91;;;6.84;100.00
49122;BME280;35529;44.342;25.944;2023-11-21T06:08:01;100396.84;;;6.90;100.00
49122;BME280;35529;44.342;25.944;2023-11-21T06:10:28;100398.91;;;7.03;100.00
49122;BME280;35529;44.342;25.944;2023-11-21T06:12:54;100401.03;;;7.08;100.00
49122;BME280;35529;44.342;25.944;2023-11-21T06:15:20;100404.28;;;7.10;100.00
49122;BME280;35529;44.342;25.944;2023-11-21T06:17:48;100398.69;;;7.13;100.00
49122;BME280;35529;44.342;25.944;2023-11-21T06:20:18;100401.16;;;7.14;100.00
49122;BME280;35529;44.342;25.944;2023-11-21T06:22:45;100397.50;;;7.15;100.00
49122;BME280;35529;44.342;25.944;2023-11-21T06:25:12;100399.25;;;7.23;100.00
49122;BME280;35529;44.342;25.944;2023-11-21T06:27:39;100406.28;;;7.31;100.00
49122;BME280;35529;44.342;25.944;2023-11-21T06:30:06;100405.25;;;7.40;100.00
49122;BME280;35529;44.342;25.944;2023-11-21T06:32:34;100425.13;;;7.51;100.00
49122;BME280;35529;44.342;25.944;2023-11-21T06:35:05;100428.88;;;7.57;100.00
49122;BME280;35529;44.342;25.944;2023-11-21T06:37:31;100427.53;;;7.61;100.00
49122;BME280;35529;44.342;25.944;2023-11-21T06:39:58;100425.34;;;7.64;100.00
49122;BME280;35529;44.342;25.944;2023-11-21T06:42:25;100439.16;;;7.75;100.00
49122;BME280;35529;44.342;25.944;2023-11-21T06:44:51;100440.44;;;7.79;100.00
49122;BME280;35529;44.342;25.944;2023-11-21T06:47:18;100437.25;;;7.83;100.00
49122;BME280;35529;44.342;25.944;2023-11-21T06:49:46;100441.00;;;7.89;100.00
49122;BME280;35529;44.342;25.944;2023-11-21T06:52:14;100443.47;;;7.91;100.00
49122;BME280;35529;44.342;25.944;2023-11-21T06:54:40;100441.09;;;7.96;100.00
49122;BME280;35529;44.342;25.944;2023-11-21T06:57:06;100429.16;;;8.00;100.00
49122;BME280;35529;44.342;25.944;2023-11-21T06:59:32;100441.94;;;8.11;100.00
49122;BME280;35529;44.342;25.944;2023-11-21T07:01:59;100444.31;;;8.21;100.00
49122;BME280;35529;44.342;25.944;2023-11-21T07:04:25;100455.81;;;8.28;100.00
49122;BME280;35529;44.342;25.944;2023-11-21T07:07:00;100457.28;;;8.31;100.00
49122;BME280;35529;44.342;25.944;2023-11-21T07:09:28;100455.81;;;8.28;100.00
49122;BME280;35529;44.342;25.944;2023-11-21T07:11:57;100467.94;;;8.22;100.00
49122;BME280;35529;44.342;25.944;2023-11-21T07:14:26;100467.94;;;8.22;100.00
49122;BME280;35529;44.342;25.944;2023-11-21T07:16:55;100476.59;;;8.16;100.00
49122;BME280;35529;44.342;25.944;2023-11-21T07:19:21;100466.47;;;8.05;100.00
49122;BME280;35529;44.342;25.944;2023-11-21T07:25:14;100477.28;;;7.95;100.00
49122;BME280;35529;44.342;25.944;2023-11-21T07:28:15;100470.81;;;7.98;100.00
49122;BME280;35529;44.342;25.944;2023-11-21T07:30:41;100477.50;;;8.09;100.00
49122;BME280;35529;44.342;25.944;2023-11-21T07:33:11;100472.41;;;8.22;100.00
49122;BME280;35529;44.342;25.944;2023-11-21T07:35:47;100469.59;;;8.38;100.00
49122;BME280;35529;44.342;25.944;2023-11-21T07:38:19;100477.16;;;8.42;100.00
49122;BME280;35529;44.342;25.944;2023-11-21T07:40:59;100477.28;;;8.48;100.00
49122;BME280;35529;44.342;25.944;2023-11-21T07:43:27;100480.13;;;8.62;100.00
49122;BME280;35529;44.342;25.944;2023-11-21T07:45:58;100482.09;;;8.75;100.00
49122;BME280;35529;44.342;25.944;2023-11-21T07:48:31;100483.56;;;8.92;100.00
49122;BME280;35529;44.342;25.944;2023-11-21T07:51:20;100479.78;;;9.01;100.00
49122;BME280;35529;44.342;25.944;2023-11-21T07:56:58;100484.34;;;9.08;100.00
49122;BME280;35529;44.342;25.944;2023-11-21T07:59:47;100483.97;;;9.11;100.00
49122;BME280;35529;44.342;25.944;2023-11-21T08:02:26;100474.34;;;9.25;100.00
49122;BME280;35529;44.342;25.944;2023-11-21T08:07:41;100467.09;;;9.55;100.00
49122;BME280;35529;44.342;25.944;2023-11-21T08:10:38;100476.19;;;9.67;100.00
49122;BME280;35529;44.342;25.944;2023-11-21T08:13:05;100466.69;;;9.80;100.00
49122;BME280;35529;44.342;25.944;2023-11-21T08:15:45;100450.50;;;9.96;100.00
49122;BME280;35529;44.342;25.944;2023-11-21T08:18:14;100449.97;;;10.07;100.00
49122;BME280;35529;44.342;25.944;2023-11-21T08:20:50;100452.56;;;10.29;100.00
49122;BME280;35529;44.342;25.944;2023-11-21T08:23:24;100449.00;;;10.44;100.00
49122;BME280;35529;44.342;25.944;2023-11-21T08:25:55;100441.09;;;10.57;100.00
49122;BME280;35529;44.342;25.944;2023-11-21T08:34:09;100440.38;;;10.83;100.00
49122;BME280;35529;44.342;25.944;2023-11-21T08:36:48;100431.66;;;10.96;100.00
49122;BME280;35529;44.342;25.944;2023-11-21T08:39:24;100413.50;;;11.13;100.00
49122;BME280;35529;44.342;25.944;2023-11-21T08:42:03;100419.66;;;11.40;100.00
49122;BME280;35529;44.342;25.944;2023-11-21T08:44:40;100410.88;;;11.53;100.00
49122;BME280;35529;44.342;25.944;2023-11-21T08:47:13;100416.38;;;11.65;100.00
49122;BME280;35529;44.342;25.944;2023-11-21T08:49:59;100411.28;;;11.57;100.00
49122;BME280;35529;44.342;25.944;2023-11-21T08:52:27;100408.63;;;11.57;100.00
49122;BME280;35529;44.342;25.944;2023-11-21T08:54:59;100404.72;;;11.60;100.00
49122;BME280;35529;44.342;25.944;2023-11-21T08:57:36;100409.03;;;11.67;100.00
49122;BME280;35529;44.342;25.944;2023-11-21T09:02:57;100403.91;;;11.99;100.00
49122;BME280;35529;44.342;25.944;2023-11-21T09:05:37;100397.97;;;12.04;100.00
49122;BME280;35529;44.342;25.944;2023-11-21T09:08:14;100393.06;;;12.07;100.00
49122;BME280;35529;44.342;25.944;2023-11-21T09:11:05;100380.53;;;12.15;100.00
49122;BME280;35529;44.342;25.944;2023-11-21T09:13:41;100380.09;;;12.31;100.00
49122;BME280;35529;44.342;25.944;2023-11-21T09:16:18;100380.44;;;12.41;100.00
49122;BME280;35529;44.342;25.944;2023-11-21T09:19:05;100379.09;;;12.71;100.00
49122;BME280;35529;44.342;25.944;2023-11-21T09:21:41;100362.72;;;12.99;100.00
49122;BME280;35529;44.342;25.944;2023-11-21T09:24:42;100368.13;;;13.18;100.00
49122;BME280;35529;44.342;25.944;2023-11-21T09:27:29;100346.69;;;13.38;100.00
49122;BME280;35529;44.342;25.944;2023-11-21T09:33:26;100356.13;;;13.84;100.00
49122;BME280;35529;44.342;25.944;2023-11-21T09:51:09;100332.19;;;14.45;100.00
49122;BME280;35529;44.342;25.944;2023-11-21T09:53:34;100331.69;;;14.55;100.00
49122;BME280;35529;44.342;25.944;2023-11-21T09:56:05;100334.19;;;14.68;100.00
49122;BME280;35529;44.342;25.944;2023-11-21T09:58:39;100324.78;;;14.66;100.00
49122;BME280;35529;44.342;25.944;2023-11-21T10:01:05;100330.47;;;14.69;100.00
49122;BME280;35529;44.342;25.944;2023-11-21T10:03:35;100324.22;;;14.57;100.00
49122;BME280;35529;44.342;25.944;2023-11-21T10:06:01;100323.97;;;14.77;100.00
49122;BME280;35529;44.342;25.944;2023-11-21T10:08:28;100322.34;;;14.76;100.00
49122;BME280;35529;44.342;25.944;2023-11-21T10:10:55;100329.59;;;14.87;100.00
49122;BME280;35529;44.342;25.944;2023-11-21T10:13:22;100326.13;;;14.99;100.00
49122;BME280;35529;44.342;25.944;2023-11-21T10:15:49;100327.41;;;15.08;100.00
49122;BME280;35529;44.342;25.944;2023-11-21T10:18:24;100323.59;;;15.16;100.00
49122;BME280;35529;44.342;25.944;2023-11-21T10:21:06;100321.28;;;15.19;100.00
49122;BME280;35529;44.342;25.944;2023-11-21T10:23:34;100324.19;;;15.30;100.00
49122;BME280;35529;44.342;25.944;2023-11-21T10:26:00;100314.56;;;15.40;100.00
49122;BME280;35529;44.342;25.944;2023-11-21T10:28:27;100304.53;;;15.36;100.00
49122;BME280;35529;44.342;25.944;2023-11-21T10:30:53;100303.28;;;15.38;100.00
49122;BME280;35529;44.342;25.944;2023-11-21T10:33:26;100307.47;;;15.34;100.00
49122;BME280;35529;44.342;25.944;2023-11-21T10:35:55;100297.00;;;15.45;100.00
49122;BME280;35529;44.342;25.944;2023-11-21T10:38:22;100298.47;;;15.52;100.00
49122;BME280;35529;44.342;25.944;2023-11-21T10:40:50;100300.72;;;15.55;100.00
49122;BME280;35529;44.342;25.944;2023-11-21T10:43:16;100286.84;;;15.58;100.00
49122;BME280;35529;44.342;25.944;2023-11-21T10:45:44;100285.94;;;15.65;100.00
49122;BME280;35529;44.342;25.944;2023-11-21T10:48:11;100276.63;;;15.67;100.00
49122;BME280;35529;44.342;25.944;2023-11-21T10:50:39;100271.25;;;15.67;100.00
49122;BME280;35529;44.342;25.944;2023-11-21T10:53:06;100266.09;;;15.78;100.00
49122;BME280;35529;44.342;25.944;2023-11-21T10:55:33;100264.13;;;15.97;100.00
49122;BME280;35529;44.342;25.944;2023-11-21T10:58:00;100255.34;;;16.13;100.00
49122;BME280;35529;44.342;25.944;2023-11-21T11:00:28;100259.69;;;16.31;100.00
49122;BME280;35529;44.342;25.944;2023-11-21T11:02:55;100256.75;;;16.33;100.00
49122;BME280;35529;44.342;25.944;2023-11-21T11:05:22;100262.34;;;16.31;100.00
49122;BME280;35529;44.342;25.944;2023-11-21T11:07:50;100259.50;;;16.21;100.00
49122;BME280;35529;44.342;25.944;2023-11-21T11:10:23;100246.81;;;16.16;100.00
49122;BME280;35529;44.342;25.944;2023-11-21T11:12:52;100249.97;;;16.13;100.00
49122;BME280;35529;44.342;25.944;2023-11-21T11:15:19;100256.97;;;16.14;100.00
49122;BME280;35529;44.342;25.944;2023-11-21T11:17:45;100256.38;;;16.12;100.00
49122;BME280;35529;44.342;25.944;2023-11-21T11:20:12;100255.00;;;16.09;100.00
49122;BME280;35529;44.342;25.944;2023-11-21T11:27:47;100263.50;;;16.06;100.00
49122;BME280;35529;44.342;25.944;2023-11-21T11:30:36;100258.00;;;16.13;100.00
49122;BME280;35529;44.342;25.944;2023-11-21T11:33:20;100264.88;;;16.21;100.00
49122;BME280;35529;44.342;25.944;2023-11-21T11:36:14;100263.78;;;16.22;100.00
49122;BME280;35529;44.342;25.944;2023-11-21T11:38:46;100254.94;;;16.21;100.00
49122;BME280;35529;44.342;25.944;2023-11-21T11:41:12;100261.84;;;16.17;100.00
49122;BME280;35529;44.342;25.944;2023-11-21T11:43:38;100253.81;;;16.17;100.00
49122;BME280;35529;44.342;25.944;2023-11-21T11:46:11;100250.88;;;16.19;100.00
49122;BME280;35529;44.342;25.944;2023-11-21T11:48:40;100252.16;;;16.16;100.00
49122;BME280;35529;44.342;25.944;2023-11-21T11:51:09;100252.41;;;16.15;100.00
49122;BME280;35529;44.342;25.944;2023-11-21T11:53:38;100255.53;;;16.23;100.00
49122;BME280;35529;44.342;25.944;2023-11-21T11:56:27;100248.88;;;16.26;100.00
49122;BME280;35529;44.342;25.944;2023-11-21T11:58:54;100241.03;;;16.36;100.00
49122;BME280;35529;44.342;25.944;2023-11-21T12:01:21;100232.59;;;16.45;100.00
49122;BME280;35529;44.342;25.944;2023-11-21T12:06:33;100229.28;;;16.54;100.00
49122;BME280;35529;44.342;25.944;2023-11-21T12:09:01;100222.28;;;16.53;100.00
49122;BME280;35529;44.342;25.944;2023-11-21T12:11:31;100225.13;;;16.47;100.00
49122;BME280;35529;44.342;25.944;2023-11-21T12:13:58;100219.44;;;16.43;100.00
49122;BME280;35529;44.342;25.944;2023-11-21T12:16:25;100215.38;;;16.40;100.00
49122;BME280;35529;44.342;25.944;2023-11-21T12:18:54;100216.50;;;16.45;100.00
49122;BME280;35529;44.342;25.944;2023-11-21T12:21:21;100217.94;;;16.35;100.00
49122;BME280;35529;44.342;25.944;2023-11-21T12:23:48;100224.53;;;16.28;100.00
49122;BME280;35529;44.342;25.944;2023-11-21T12:26:14;100221.50;;;16.24;100.00
49122;BME280;35529;44.342;25.944;2023-11-21T12:28:40;100215.72;;;16.15;100.00
49122;BME280;35529;44.342;25.944;2023-11-21T12:31:06;100221.47;;;16.07;100.00
49122;BME280;35529;44.342;25.944;2023-11-21T12:33:36;100219.16;;;15.99;100.00
49122;BME280;35529;44.342;25.944;2023-11-21T12:36:02;100229.22;;;15.91;100.00
49122;BME280;35529;44.342;25.944;2023-11-21T12:38:35;100224.31;;;15.88;100.00
49122;BME280;35529;44.342;25.944;2023-11-21T12:41:01;100219.09;;;15.82;100.00
49122;BME280;35529;44.342;25.944;2023-11-21T12:43:28;100220.50;;;15.72;100.00
49122;BME280;35529;44.342;25.944;2023-11-21T12:46:07;100214.00;;;15.68;100.00
49122;BME280;35529;44.342;25.944;2023-11-21T12:48:38;100215.06;;;15.67;100.00
49122;BME280;35529;44.342;25.944;2023-11-21T12:51:10;100208.31;;;15.65;100.00
49122;BME280;35529;44.342;25.944;2023-11-21T12:53:44;100211.31;;;15.68;100.00
49122;BME280;35529;44.342;25.944;2023-11-21T12:56:11;100209.78;;;15.72;100.00
49122;BME280;35529;44.342;25.944;2023-11-21T12:58:38;100205.13;;;15.80;100.00
49122;BME280;35529;44.342;25.944;2023-11-21T13:01:08;100209.47;;;15.81;100.00
49122;BME280;35529;44.342;25.944;2023-11-21T13:03:47;100209.09;;;15.89;100.00
49122;BME280;35529;44.342;25.944;2023-11-21T13:06:17;100199.03;;;15.96;100.00
49122;BME280;35529;44.342;25.944;2023-11-21T13:08:43;100198.78;;;15.98;100.00
49122;BME280;35529;44.342;25.944;2023-11-21T13:11:10;100196.47;;;16.01;100.00
49122;BME280;35529;44.342;25.944;2023-11-21T13:13:36;100187.69;;;16.06;100.00
49122;BME280;35529;44.342;25.944;2023-11-21T13:16:04;100182.13;;;16.07;100.00
49122;BME280;35529;44.342;25.944;2023-11-21T13:18:31;100180.69;;;16.17;100.00
49122;BME280;35529;44.342;25.944;2023-11-21T13:21:07;100183.22;;;16.23;100.00
49122;BME280;35529;44.342;25.944;2023-11-21T13:23:39;100171.75;;;16.28;100.00
49122;BME280;35529;44.342;25.944;2023-11-21T13:26:07;100174.78;;;16.32;100.00
49122;BME280;35529;44.342;25.944;2023-11-21T13:28:34;100175.09;;;16.35;100.00